Time;durP1;ratioP1;P1;durP2;ratioP2;P2;SDS_P1;SDS_P2;PMS_P1;PMS_P2;Temp;Humidity;BMP_temperature;BMP_pressure;BME280_temperature;BME280_humidity;BME280_pressure;Samples;Min_cycle;Max_cycle;Signal;HPM_P1;HPM_P2
2023/04/03 00:02:07;;;;;;;2.10;1.73;;;11.20;52.80;;;;;;6213445;23;20413;-68
2023/04/03 00:04:34;;;;;;;1.50;1.40;;;11.20;52.60;;;;;;6213747;23;20499;-68
2023/04/03 00:07:02;;;;;;;2.57;1.80;;;11.30;52.30;;;;;;6213448;23;20412;-68
2023/04/03 00:09:29;;;;;;;2.83;1.77;;;11.30;52.10;;;;;;6213333;23;20405;-68
2023/04/03 00:11:56;;;;;;;2.20;1.80;;;11.30;52.20;;;;;;6213015;23;20419;-69
2023/04/03 00:14:23;;;;;;;2.00;1.77;;;11.30;52.20;;;;;;6213243;23;20825;-68
2023/04/03 00:16:50;;;;;;;2.70;1.73;;;11.30;52.20;;;;;;6213264;23;20433;-68
2023/04/03 00:19:16;;;;;;;2.00;1.80;;;11.30;52.30;;;;;;6213754;23;20413;-68
2023/04/03 00:21:43;;;;;;;2.47;1.40;;;11.30;52.50;;;;;;6213287;23;20405;-68
2023/04/03 00:24:11;;;;;;;2.10;1.77;;;11.30;52.20;;;;;;6212559;23;20889;-69
2023/04/03 00:26:38;;;;;;;1.80;1.70;;;11.30;52.30;;;;;;6213592;23;20405;-69
2023/04/03 00:29:05;;;;;;;2.57;1.93;;;11.30;52.50;;;;;;6213177;23;20506;-68
2023/04/03 00:31:32;;;;;;;2.00;1.37;;;11.30;52.60;;;;;;6212559;23;20507;-68
2023/04/03 00:33:59;;;;;;;1.67;1.57;;;11.30;52.60;;;;;;6212948;23;20405;-69
2023/04/03 00:36:26;;;;;;;1.73;1.60;;;11.20;52.80;;;;;;6212830;23;20441;-68
2023/04/03 00:38:53;;;;;;;2.23;1.80;;;11.20;52.90;;;;;;6212516;23;20492;-69
2023/04/03 00:41:22;;;;;;;2.40;1.70;;;11.20;52.60;;;;;;6212303;23;20913;-69
2023/04/03 00:43:49;;;;;;;1.60;1.50;;;11.20;52.40;;;;;;6213079;23;20940;-68
2023/04/03 00:46:15;;;;;;;1.97;1.63;;;11.20;52.60;;;;;;6213118;23;20413;-69
2023/04/03 00:48:44;;;;;;;2.43;1.83;;;11.20;52.80;;;;;;6213451;23;20516;-68
2023/04/03 00:51:15;;;;;;;1.60;1.50;;;11.20;52.40;;;;;;6212756;23;20435;-69
2023/04/03 00:53:46;;;;;;;2.93;1.80;;;11.20;52.40;;;;;;6211897;23;20837;-69
2023/04/03 00:56:16;;;;;;;1.57;1.37;;;11.10;51.90;;;;;;6212760;23;20447;-69
2023/04/03 00:58:49;;;;;;;2.00;1.60;;;11.10;52.40;;;;;;6212471;23;20731;-69
2023/04/03 01:01:21;;;;;;;1.73;1.60;;;11.10;52.30;;;;;;6212271;23;20389;-69
2023/04/03 01:03:48;;;;;;;1.97;1.40;;;11.10;52.30;;;;;;6212472;23;20412;-69
2023/04/03 01:06:18;;;;;;;2.60;1.60;;;11.10;52.20;;;;;;6212930;23;20893;-69
2023/04/03 01:08:46;;;;;;;2.03;1.40;;;11.10;52.10;;;;;;6212186;23;20416;-69
2023/04/03 01:11:13;;;;;;;2.73;1.67;;;11.10;52.30;;;;;;6211859;23;20413;-69
2023/04/03 01:13:40;;;;;;;1.60;1.50;;;11.10;52.50;;;;;;6212498;23;20488;-69
2023/04/03 01:16:10;;;;;;;1.53;1.37;;;11.10;52.80;;;;;;6212772;23;20520;-70
2023/04/03 01:18:39;;;;;;;1.73;1.47;;;11.10;53.00;;;;;;6212421;23;20496;-70
2023/04/03 01:21:37;;;;;;;2.30;1.73;;;11.10;53.40;;;;;;6212551;23;20405;-70
2023/04/03 01:24:16;;;;;;;2.63;1.50;;;11.00;53.40;;;;;;6212061;23;20409;-69
2023/04/03 01:26:43;;;;;;;3.43;1.57;;;11.00;53.10;;;;;;6211951;23;20393;-69
2023/04/03 01:29:11;;;;;;;2.80;1.57;;;11.00;53.00;;;;;;6212075;23;20405;-70
2023/04/03 01:31:54;;;;;;;3.40;1.60;;;11.00;53.00;;;;;;6211545;23;20409;-69
2023/04/03 01:34:21;;;;;;;4.63;1.80;;;11.00;53.20;;;;;;6211160;23;20973;-69
2023/04/03 01:36:48;;;;;;;1.50;1.40;;;10.90;53.70;;;;;;6210778;23;20419;-69
2023/04/03 01:39:15;;;;;;;2.67;2.00;;;10.90;54.20;;;;;;6211921;23;20432;-68
2023/04/03 01:41:45;;;;;;;2.43;1.80;;;10.90;54.30;;;;;;6210552;23;20429;-68
2023/04/03 01:44:12;;;;;;;3.17;2.17;;;10.90;54.30;;;;;;6210169;23;20493;-69
2023/04/03 01:46:39;;;;;;;4.30;1.80;;;10.90;54.20;;;;;;6210900;23;20415;-68
2023/04/03 01:49:07;;;;;;;2.50;1.87;;;10.90;54.20;;;;;;6212311;23;20411;-69
2023/04/03 01:51:34;;;;;;;2.07;1.70;;;10.80;54.40;;;;;;6211669;23;20500;-69
2023/04/03 01:54:01;;;;;;;2.10;1.90;;;10.70;54.10;;;;;;6212398;23;21052;-69
2023/04/03 01:56:28;;;;;;;2.47;2.10;;;10.70;54.20;;;;;;6212486;23;20464;-69
2023/04/03 01:58:55;;;;;;;2.70;1.83;;;10.70;54.40;;;;;;6212075;23;20408;-68
2023/04/03 02:01:22;;;;;;;2.40;2.10;;;10.70;54.50;;;;;;6212513;23;20415;-69
2023/04/03 02:03:49;;;;;;;2.10;1.90;;;10.60;54.70;;;;;;6212101;23;20893;-69
2023/04/03 02:06:17;;;;;;;2.20;1.80;;;10.60;54.80;;;;;;6211418;23;21003;-69
2023/04/03 02:08:44;;;;;;;1.77;1.67;;;10.60;55.00;;;;;;6212248;23;20714;-69
2023/04/03 02:11:11;;;;;;;2.40;1.83;;;10.60;55.00;;;;;;6212212;23;20416;-69
2023/04/03 02:13:37;;;;;;;2.17;2.00;;;10.60;55.30;;;;;;6211965;23;20409;-70
2023/04/03 02:16:09;;;;;;;2.10;1.70;;;10.50;55.20;;;;;;6212198;23;20950;-69
2023/04/03 02:18:36;;;;;;;2.00;1.80;;;10.50;55.30;;;;;;6212356;23;20504;-69
2023/04/03 02:21:03;;;;;;;4.70;1.90;;;10.50;55.30;;;;;;6211702;23;20432;-69
2023/04/03 02:23:32;;;;;;;2.10;1.90;;;10.40;55.30;;;;;;6212369;23;20415;-69
2023/04/03 02:26:07;;;;;;;3.50;2.20;;;10.40;55.50;;;;;;6212056;23;20421;-70
2023/04/03 02:28:34;;;;;;;2.17;1.70;;;10.40;55.50;;;;;;6212059;23;20415;-69
2023/04/03 02:31:02;;;;;;;2.23;1.90;;;10.30;55.60;;;;;;6211896;23;20924;-69
2023/04/03 02:33:28;;;;;;;3.97;1.83;;;10.30;55.70;;;;;;6211790;23;20409;-69
2023/04/03 02:35:58;;;;;;;2.10;1.90;;;10.30;55.80;;;;;;6211363;23;20440;-70
2023/04/03 02:38:26;;;;;;;3.27;1.90;;;10.30;55.80;;;;;;6211805;23;20409;-69
2023/04/03 02:40:55;;;;;;;4.30;2.10;;;10.20;55.80;;;;;;6211467;23;20428;-68
2023/04/03 02:43:22;;;;;;;2.90;2.00;;;10.20;55.70;;;;;;6211885;23;20459;-69
2023/04/03 02:45:49;;;;;;;2.93;1.97;;;10.20;56.40;;;;;;6211639;23;20878;-69
2023/04/03 02:48:16;;;;;;;2.93;1.93;;;10.10;55.80;;;;;;6212575;23;20436;-69
2023/04/03 02:50:43;;;;;;;2.17;1.73;;;10.10;55.80;;;;;;6211432;23;20405;-69
2023/04/03 02:53:10;;;;;;;2.93;1.70;;;10.10;55.60;;;;;;6212119;23;20500;-70
2023/04/03 02:55:37;;;;;;;2.47;1.90;;;10.10;55.80;;;;;;6211299;23;20450;-68
2023/04/03 02:58:05;;;;;;;2.53;1.87;;;10.00;55.60;;;;;;6212210;23;20409;-69
2023/04/03 03:00:33;;;;;;;3.07;1.80;;;10.00;55.60;;;;;;6213630;23;20437;-69
2023/04/03 03:03:00;;;;;;;2.03;1.83;;;10.00;56.00;;;;;;6213871;23;20415;-69
2023/04/03 03:05:27;;;;;;;2.27;2.07;;;9.90;56.70;;;;;;6213699;23;20409;-68
2023/04/03 03:07:55;;;;;;;5.83;2.07;;;9.90;56.90;;;;;;6213660;23;20409;-68
2023/04/03 03:10:22;;;;;;;3.43;2.23;;;9.90;57.00;;;;;;6213672;23;20440;-69
2023/04/03 03:12:49;;;;;;;2.37;2.00;;;9.90;57.10;;;;;;6214131;23;20415;-69
2023/04/03 03:15:19;;;;;;;3.00;2.10;;;9.80;57.10;;;;;;6213557;23;20436;-69
2023/04/03 03:17:46;;;;;;;4.97;1.97;;;9.80;57.10;;;;;;6213531;23;20533;-68
2023/04/03 03:20:15;;;;;;;2.30;2.07;;;9.80;57.40;;;;;;6213144;23;20898;-68
2023/04/03 03:22:42;;;;;;;2.93;2.10;;;9.80;57.70;;;;;;6213859;23;20413;-68
2023/04/03 03:25:09;;;;;;;3.13;2.00;;;9.70;57.70;;;;;;6213480;23;20738;-68
2023/04/03 03:27:36;;;;;;;2.63;1.97;;;9.80;57.80;;;;;;6213523;23;20443;-68
2023/04/03 03:30:03;;;;;;;2.40;2.07;;;9.70;57.80;;;;;;6213626;23;20416;-68
2023/04/03 03:32:32;;;;;;;2.50;1.77;;;9.70;57.80;;;;;;6213306;23;20452;-69
2023/04/03 03:34:59;;;;;;;1.80;1.70;;;9.70;57.90;;;;;;6213738;23;20716;-68
2023/04/03 03:37:26;;;;;;;2.20;2.00;;;9.70;58.50;;;;;;6213263;23;20417;-68
2023/04/03 03:39:56;;;;;;;3.13;2.27;;;9.70;58.00;;;;;;6213456;23;20433;-69
2023/04/03 03:42:25;;;;;;;2.30;2.10;;;9.70;58.10;;;;;;6212944;23;20928;-69
2023/04/03 03:44:52;;;;;;;3.23;2.37;;;9.70;58.20;;;;;;6213947;23;20409;-68
2023/04/03 03:47:20;;;;;;;2.30;2.10;;;9.70;58.20;;;;;;6213134;23;20405;-69
2023/04/03 03:49:48;;;;;;;2.10;1.90;;;9.70;58.20;;;;;;6213560;23;20409;-68
2023/04/03 03:52:15;;;;;;;2.60;2.23;;;9.70;58.20;;;;;;6213924;23;20421;-69
2023/04/03 03:54:42;;;;;;;2.30;2.10;;;9.70;58.50;;;;;;6213662;23;20405;-69
2023/04/03 03:57:09;;;;;;;1.90;1.80;;;9.70;58.40;;;;;;6213645;23;20441;-69
2023/04/03 03:59:36;;;;;;;2.37;1.80;;;9.70;58.60;;;;;;6214108;23;20508;-69
2023/04/03 04:02:03;;;;;;;3.20;1.97;;;9.70;58.50;;;;;;6213464;23;20717;-68
2023/04/03 04:04:31;;;;;;;2.57;2.00;;;9.70;58.60;;;;;;6213554;23;20415;-69
2023/04/03 04:07:00;;;;;;;3.47;2.27;;;9.70;58.30;;;;;;6213539;23;20405;-69
2023/04/03 04:09:27;;;;;;;2.93;2.00;;;9.70;58.30;;;;;;6213569;23;20492;-69
2023/04/03 04:11:54;;;;;;;3.57;2.10;;;9.70;58.20;;;;;;6213375;23;20429;-69
2023/04/03 04:14:21;;;;;;;2.63;2.07;;;9.70;58.20;;;;;;6213963;23;20492;-69
2023/04/03 04:16:48;;;;;;;2.13;1.93;;;9.70;58.70;;;;;;6212988;23;21240;-69
2023/04/03 04:19:15;;;;;;;2.37;2.17;;;9.70;58.20;;;;;;6213646;23;20520;-69
2023/04/03 04:21:42;;;;;;;4.03;2.00;;;9.70;58.40;;;;;;6213368;23;20491;-69
2023/04/03 04:24:10;;;;;;;3.50;2.10;;;9.80;58.50;;;;;;6214407;23;20409;-69
2023/04/03 04:26:37;;;;;;;3.13;2.00;;;9.70;58.40;;;;;;6213900;23;20405;-69
2023/04/03 04:29:04;;;;;;;2.80;2.37;;;9.70;58.40;;;;;;6213287;23;20476;-69
2023/04/03 04:31:31;;;;;;;3.33;1.90;;;9.70;58.40;;;;;;6212754;23;20432;-69
2023/04/03 04:33:58;;;;;;;2.30;1.87;;;9.70;58.50;;;;;;6213905;23;20885;-69
2023/04/03 04:36:25;;;;;;;3.83;2.47;;;9.70;58.40;;;;;;6213516;23;20620;-68
2023/04/03 04:38:53;;;;;;;2.00;1.80;;;9.70;58.80;;;;;;6212643;23;20762;-68
2023/04/03 04:41:23;;;;;;;2.47;2.23;;;9.70;58.20;;;;;;6212001;23;20452;-68
2023/04/03 04:43:49;;;;;;;2.67;1.90;;;9.70;58.10;;;;;;6213564;23;20712;-68
2023/04/03 04:46:16;;;;;;;2.60;2.07;;;9.70;58.20;;;;;;6212535;23;20468;-69
2023/04/03 04:48:43;;;;;;;1.80;1.70;;;9.70;58.00;;;;;;6213323;23;20516;-68
2023/04/03 04:51:10;;;;;;;3.70;2.10;;;9.70;57.40;;;;;;6212773;23;20492;-69
2023/04/03 04:53:38;;;;;;;4.20;1.83;;;9.70;57.40;;;;;;6213548;23;20409;-68
2023/04/03 04:56:08;;;;;;;1.87;1.77;;;9.70;57.50;;;;;;6212637;23;20531;-68
2023/04/03 04:58:38;;;;;;;2.27;2.07;;;9.70;56.90;;;;;;6213378;23;20439;-68
2023/04/03 05:01:07;;;;;;;2.00;1.73;;;9.60;56.70;;;;;;6213080;23;20409;-68
2023/04/03 05:03:34;;;;;;;2.00;1.80;;;9.60;56.60;;;;;;6246703;22;20470;-69
2023/04/03 05:06:01;;;;;;;2.07;1.77;;;9.50;56.40;;;;;;6303462;22;20433;-70
2023/04/03 05:08:28;;;;;;;3.07;1.80;;;9.50;56.40;;;;;;6304688;22;20956;-68
2023/04/03 05:10:55;;;;;;;1.90;1.80;;;9.50;56.40;;;;;;6304460;22;20850;-69
2023/04/03 05:13:22;;;;;;;2.20;2.00;;;9.50;56.40;;;;;;6304996;22;20920;-69
2023/04/03 05:15:50;;;;;;;2.27;1.80;;;9.50;56.40;;;;;;6304322;22;20449;-68
2023/04/03 05:18:17;;;;;;;2.17;1.80;;;9.40;56.30;;;;;;6304925;22;20493;-69
2023/04/03 05:20:44;;;;;;;2.90;1.93;;;9.40;56.40;;;;;;6304266;22;20484;-69
2023/04/03 05:23:11;;;;;;;2.13;1.93;;;9.30;56.30;;;;;;6305188;22;20409;-68
2023/04/03 05:25:38;;;;;;;2.87;1.83;;;9.30;56.30;;;;;;6304914;22;20879;-68
2023/04/03 05:28:07;;;;;;;2.10;1.87;;;9.30;56.40;;;;;;6304310;22;20405;-69
2023/04/03 05:30:34;;;;;;;1.90;1.60;;;9.30;56.40;;;;;;6304266;22;20466;-68
2023/04/03 05:33:02;;;;;;;2.87;2.03;;;9.30;56.40;;;;;;6304436;22;20912;-69
2023/04/03 05:35:29;;;;;;;3.63;2.20;;;9.30;56.40;;;;;;6304194;22;20405;-69
2023/04/03 05:37:56;;;;;;;2.87;1.90;;;9.30;56.40;;;;;;6304926;22;20789;-68
2023/04/03 05:40:23;;;;;;;3.03;1.90;;;9.30;56.30;;;;;;6303761;22;20481;-69
2023/04/03 05:42:50;;;;;;;2.57;2.20;;;9.30;56.40;;;;;;6303241;22;20517;-68
2023/04/03 05:45:17;;;;;;;5.07;2.27;;;9.30;56.30;;;;;;6303936;22;20414;-69
2023/04/03 05:47:44;;;;;;;3.17;2.07;;;9.30;56.50;;;;;;6304283;22;20405;-69
2023/04/03 05:50:13;;;;;;;2.77;2.17;;;9.30;56.60;;;;;;6308521;22;20417;-69
2023/04/03 05:52:43;;;;;;;2.50;1.80;;;9.30;56.50;;;;;;6319405;22;20468;-69
2023/04/03 05:55:10;;;;;;;3.90;2.07;;;9.30;56.70;;;;;;6311606;22;20430;-66
2023/04/03 05:57:38;;;;;;;2.47;1.97;;;9.30;57.00;;;;;;6303936;22;21107;-68
2023/04/03 06:00:06;;;;;;;2.83;2.03;;;9.30;57.10;;;;;;6303718;22;20521;-68
2023/04/03 06:02:33;;;;;;;3.60;2.07;;;9.30;57.20;;;;;;6303698;22;20438;-67
2023/04/03 06:05:00;;;;;;;3.07;2.33;;;9.30;57.00;;;;;;6304161;22;20466;-67
2023/04/03 06:07:28;;;;;;;3.27;2.30;;;9.40;56.90;;;;;;6304058;22;20477;-68
2023/04/03 06:09:57;;;;;;;3.03;2.10;;;9.50;57.10;;;;;;6304037;22;20484;-68
2023/04/03 06:12:24;;;;;;;2.47;2.27;;;9.40;57.20;;;;;;6303941;22;20914;-68
2023/04/03 06:14:51;;;;;;;2.43;2.23;;;9.50;57.10;;;;;;6304604;22;20410;-68
2023/04/03 06:17:19;;;;;;;3.13;2.60;;;9.50;57.00;;;;;;6304288;22;20517;-69
2023/04/03 06:19:46;;;;;;;3.13;2.60;;;9.50;57.10;;;;;;6303656;22;20413;-68
2023/04/03 06:22:13;;;;;;;5.10;2.80;;;9.60;57.10;;;;;;6303720;22;20497;-67
2023/04/03 06:24:41;;;;;;;3.00;1.97;;;9.60;57.10;;;;;;6305073;22;20406;-66
2023/04/03 06:27:08;;;;;;;2.10;1.90;;;9.60;56.90;;;;;;6304138;22;20738;-69
2023/04/03 06:29:35;;;;;;;3.73;2.50;;;9.70;57.00;;;;;;6304809;22;20390;-69
2023/04/03 06:32:02;;;;;;;3.93;2.37;;;9.70;57.10;;;;;;6305320;22;20526;-68
2023/04/03 06:34:29;;;;;;;2.50;2.20;;;9.70;56.90;;;;;;6306639;22;20480;-69
2023/04/03 06:36:56;;;;;;;2.90;1.97;;;9.70;57.70;;;;;;6307618;22;20477;-69
2023/04/03 06:39:23;;;;;;;2.27;2.07;;;9.80;57.30;;;;;;6307648;22;20449;-69
2023/04/03 06:41:52;;;;;;;2.67;2.20;;;9.80;57.50;;;;;;6306895;22;20471;-69
2023/04/03 06:44:19;;;;;;;2.67;2.10;;;9.90;57.30;;;;;;6305737;22;20409;-68
2023/04/03 06:46:46;;;;;;;3.23;2.20;;;9.90;57.30;;;;;;6305506;22;20429;-70
2023/04/03 06:49:13;;;;;;;3.30;2.60;;;9.90;57.10;;;;;;6306092;22;20387;-69
2023/04/03 06:51:40;;;;;;;2.83;2.27;;;10.00;56.40;;;;;;6304998;22;21038;-68
2023/04/03 06:54:07;;;;;;;4.17;2.10;;;10.00;56.30;;;;;;6306595;22;20426;-69
2023/04/03 06:56:35;;;;;;;2.27;2.07;;;10.00;56.50;;;;;;6305971;22;20422;-68
2023/04/03 06:59:03;;;;;;;2.37;2.17;;;10.00;56.30;;;;;;6305528;22;20539;-68
2023/04/03 07:01:31;;;;;;;3.30;2.40;;;10.10;56.30;;;;;;6304192;22;20749;-68
2023/04/03 07:03:58;;;;;;;4.97;2.10;;;10.10;56.20;;;;;;6305175;22;20437;-70
2023/04/03 07:06:26;;;;;;;2.77;2.00;;;10.10;56.00;;;;;;6305225;22;20477;-69
2023/04/03 07:08:53;;;;;;;4.37;2.20;;;10.10;55.90;;;;;;6305779;22;20773;-68
2023/04/03 07:11:20;;;;;;;2.30;2.00;;;10.20;55.70;;;;;;6304365;22;20430;-69
2023/04/03 07:13:47;;;;;;;3.10;2.20;;;10.20;55.90;;;;;;6306000;22;20548;-69
2023/04/03 07:16:15;;;;;;;2.23;2.03;;;10.30;55.90;;;;;;6305394;22;20502;-69
2023/04/03 07:18:42;;;;;;;3.07;2.20;;;10.40;55.60;;;;;;6305707;22;20393;-70
2023/04/03 07:21:09;;;;;;;5.50;2.20;;;10.50;55.50;;;;;;6304769;22;20433;-68
2023/04/03 07:23:36;;;;;;;3.97;2.10;;;10.60;55.20;;;;;;6305182;22;20472;-68
2023/04/03 07:26:04;;;;;;;2.87;2.40;;;10.60;55.10;;;;;;6304815;22;20513;-69
2023/04/03 07:28:31;;;;;;;3.73;2.60;;;10.70;55.20;;;;;;6304908;22;20522;-69
2023/04/03 07:31:02;;;;;;;4.73;2.73;;;10.70;55.00;;;;;;6304582;22;20418;-68
2023/04/03 07:33:31;;;;;;;2.80;2.13;;;10.80;54.80;;;;;;6304907;22;20478;-69
2023/04/03 07:36:00;;;;;;;3.10;2.43;;;10.80;54.30;;;;;;6304865;22;20405;-68
2023/04/03 07:38:27;;;;;;;3.57;2.30;;;10.90;54.70;;;;;;6304245;22;20918;-69
2023/04/03 07:40:54;;;;;;;3.23;2.13;;;11.00;55.00;;;;;;6303865;22;20494;-68
2023/04/03 07:43:22;;;;;;;3.67;2.53;;;11.00;54.60;;;;;;6304770;22;20481;-69
2023/04/03 07:45:50;;;;;;;3.63;2.20;;;11.00;54.40;;;;;;6304606;22;20497;-69
2023/04/03 07:48:18;;;;;;;3.00;2.10;;;11.00;54.30;;;;;;6304592;22;20901;-69
2023/04/03 07:50:46;;;;;;;4.40;2.40;;;11.00;54.00;;;;;;6304423;22;20444;-68
2023/04/03 07:53:14;;;;;;;2.67;2.30;;;11.00;54.30;;;;;;6304246;22;20730;-68
2023/04/03 07:55:43;;;;;;;3.73;2.20;;;11.00;54.30;;;;;;6304463;22;20460;-69
2023/04/03 07:58:10;;;;;;;3.50;2.03;;;11.10;53.90;;;;;;6304502;22;20449;-69
2023/04/03 08:00:38;;;;;;;3.87;2.27;;;11.10;53.90;;;;;;6304128;22;20406;-68
2023/04/03 08:03:05;;;;;;;3.63;2.10;;;11.10;54.40;;;;;;6304116;22;20429;-69
2023/04/03 08:05:32;;;;;;;3.40;2.33;;;11.20;54.50;;;;;;6250702;22;20497;-67
2023/04/03 08:08:00;;;;;;;3.17;2.20;;;11.20;54.50;;;;;;6304101;22;20403;-68
2023/04/03 08:10:27;;;;;;;4.07;2.20;;;11.30;54.00;;;;;;6304014;22;20434;-68
2023/04/03 08:12:54;;;;;;;2.97;2.10;;;11.40;54.10;;;;;;6304409;22;20490;-68
2023/04/03 08:15:21;;;;;;;4.60;2.70;;;11.40;54.00;;;;;;6304228;22;20877;-68
2023/04/03 08:17:48;;;;;;;3.23;2.27;;;11.50;54.40;;;;;;6304001;22;20438;-69
2023/04/03 08:20:15;;;;;;;4.50;2.50;;;11.50;54.10;;;;;;6304500;22;20743;-69
2023/04/03 08:22:42;;;;;;;4.97;2.53;;;11.70;53.70;;;;;;6303580;22;20926;-68
2023/04/03 08:25:10;;;;;;;4.30;2.27;;;11.70;54.60;;;;;;6304320;22;20441;-68
2023/04/03 08:27:37;;;;;;;2.60;2.40;;;11.80;53.90;;;;;;6303872;22;20398;-69
2023/04/03 08:30:06;;;;;;;4.70;2.33;;;11.80;53.40;;;;;;6303661;22;20407;-68
2023/04/03 08:32:34;;;;;;;2.50;2.03;;;12.00;54.00;;;;;;6304046;22;20413;-69
2023/04/03 08:35:01;;;;;;;5.30;2.20;;;12.10;54.40;;;;;;6304396;22;20488;-68
2023/04/03 08:37:28;;;;;;;2.70;2.33;;;12.20;53.70;;;;;;6303824;22;20473;-68
2023/04/03 08:39:55;;;;;;;5.30;2.60;;;12.30;52.60;;;;;;6304413;22;20390;-68
2023/04/03 08:42:37;;;;;;;2.10;1.90;;;12.30;51.00;;;;;;6304212;22;20481;-69
2023/04/03 08:45:11;;;;;;;3.43;2.20;;;12.20;50.80;;;;;;6304409;22;20414;-68
2023/04/03 08:47:43;;;;;;;3.17;2.30;;;12.20;50.90;;;;;;6304262;22;20861;-68
2023/04/03 08:50:16;;;;;;;3.30;1.90;;;12.20;50.90;;;;;;6304102;22;20422;-68
2023/04/03 08:52:47;;;;;;;2.83;1.90;;;12.20;50.60;;;;;;6303725;22;20422;-69
2023/04/03 08:55:23;;;;;;;2.83;1.90;;;12.30;50.50;;;;;;6305312;22;20434;-68
2023/04/03 08:57:58;;;;;;;2.47;2.10;;;12.30;51.30;;;;;;6304098;22;20972;-68
2023/04/03 09:00:28;;;;;;;3.13;2.10;;;12.40;51.40;;;;;;6304693;22;20435;-69
2023/04/03 09:02:56;;;;;;;3.37;1.97;;;12.40;50.80;;;;;;6304662;22;20473;-68
2023/04/03 09:05:38;;;;;;;2.17;1.87;;;12.40;51.20;;;;;;6303820;22;20443;-69
2023/04/03 09:08:08;;;;;;;3.07;1.80;;;12.50;50.10;;;;;;6304475;22;20401;-68
2023/04/03 09:10:38;;;;;;;2.47;1.90;;;12.40;49.70;;;;;;6304319;22;20414;-68
2023/04/03 09:13:11;;;;;;;3.20;1.77;;;12.50;50.20;;;;;;6303699;22;20398;-67
2023/04/03 09:15:38;;;;;;;3.70;2.00;;;12.40;48.20;;;;;;6304044;22;20393;-68
2023/04/03 09:18:13;;;;;;;2.93;2.17;;;12.50;48.80;;;;;;6304068;22;20461;-68
2023/04/03 09:20:47;;;;;;;3.63;1.77;;;12.60;49.10;;;;;;6303260;22;20390;-68
2023/04/03 09:23:23;;;;;;;2.40;1.90;;;12.70;49.80;;;;;;6303343;22;20430;-67
2023/04/03 09:25:54;;;;;;;2.50;2.00;;;12.80;48.70;;;;;;6304112;22;20385;-69
2023/04/03 09:28:22;;;;;;;2.77;1.80;;;12.90;48.80;;;;;;6303392;22;20387;-69
2023/04/03 09:30:49;;;;;;;3.43;1.87;;;13.00;48.80;;;;;;6303483;22;20897;-68
2023/04/03 09:33:17;;;;;;;3.40;1.93;;;13.20;48.30;;;;;;6303251;22;20464;-69
2023/04/03 09:35:44;;;;;;;3.00;1.83;;;13.40;48.20;;;;;;6303454;22;20402;-69
2023/04/03 09:38:21;;;;;;;3.43;1.70;;;13.50;48.10;;;;;;6303773;22;20517;-69
2023/04/03 09:40:50;;;;;;;1.90;1.60;;;13.60;46.70;;;;;;6303922;22;20718;-67
2023/04/03 09:43:27;;;;;;;2.90;1.67;;;13.70;47.30;;;;;;6303727;22;20390;-69
2023/04/03 09:45:55;;;;;;;3.97;1.77;;;13.80;45.60;;;;;;6303883;22;20396;-69
2023/04/03 09:48:23;;;;;;;2.83;1.30;;;13.80;45.60;;;;;;6303464;22;20433;-69
2023/04/03 09:50:58;;;;;;;4.30;1.67;;;13.80;45.70;;;;;;6303732;22;20970;-69
2023/04/03 09:53:37;;;;;;;5.03;1.83;;;13.90;45.90;;;;;;6303859;22;20451;-68
2023/04/03 09:56:18;;;;;;;4.17;1.70;;;14.00;45.70;;;;;;6303837;22;20401;-68
2023/04/03 09:58:50;;;;;;;5.47;1.70;;;14.00;44.90;;;;;;6303034;22;20426;-69
2023/04/03 10:01:28;;;;;;;3.40;1.70;;;13.90;44.70;;;;;;6303862;22;20817;-68
2023/04/03 10:04:10;;;;;;;5.10;2.03;;;13.90;43.50;;;;;;6303207;22;20434;-70
2023/04/03 10:06:40;;;;;;;1.90;1.50;;;14.00;44.30;;;;;;6304014;22;20429;-68
2023/04/03 10:09:16;;;;;;;2.63;2.00;;;14.10;44.50;;;;;;6302914;22;20743;-69
2023/04/03 10:11:59;;;;;;;1.70;1.50;;;14.20;44.40;;;;;;6301633;22;21180;-68
2023/04/03 10:14:27;;;;;;;2.57;1.60;;;14.30;43.80;;;;;;6302042;22;20390;-69
2023/04/03 10:17:00;;;;;;;2.53;1.53;;;14.40;44.50;;;;;;6302574;22;20397;-68
2023/04/03 10:19:39;;;;;;;1.83;1.33;;;14.40;43.50;;;;;;6301656;22;20397;-68
2023/04/03 10:22:14;;;;;;;2.77;1.63;;;14.40;42.50;;;;;;6301961;22;20494;-69
2023/04/03 10:24:49;;;;;;;1.67;1.20;;;14.40;42.30;;;;;;6302956;22;20469;-68
2023/04/03 10:27:21;;;;;;;1.30;1.20;;;14.50;42.30;;;;;;6303594;22;20723;-69
2023/04/03 10:29:55;;;;;;;1.43;1.13;;;14.40;42.80;;;;;;6302786;22;20390;-68
2023/04/03 10:32:37;;;;;;;2.40;1.40;;;14.40;41.80;;;;;;6303978;22;20398;-68
2023/04/03 10:35:17;;;;;;;2.43;1.40;;;14.50;42.60;;;;;;6303541;22;21055;-68
2023/04/03 10:37:58;;;;;;;3.27;1.60;;;14.50;42.10;;;;;;6303445;22;20422;-69
2023/04/03 10:40:35;;;;;;;2.00;1.40;;;14.40;41.20;;;;;;6303299;22;20425;-67
2023/04/03 10:43:09;;;;;;;2.73;1.20;;;14.40;40.90;;;;;;6303084;22;20399;-68
2023/04/03 10:46:03;;;;;;;2.37;1.70;;;14.30;40.90;;;;;;6304034;22;20459;-67
2023/04/03 10:48:47;;;;;;;2.37;1.60;;;14.30;41.90;;;;;;6301561;22;20737;-68
2023/04/03 10:51:25;;;;;;;1.60;1.40;;;14.30;40.90;;;;;;6303199;22;20398;-67
2023/04/03 10:53:58;;;;;;;2.83;1.57;;;14.30;41.50;;;;;;6303347;22;20726;-69
2023/04/03 10:56:33;;;;;;;2.73;1.23;;;14.40;42.00;;;;;;6303332;22;20969;-68
2023/04/03 10:59:08;;;;;;;2.67;1.37;;;14.40;40.30;;;;;;6302831;22;20422;-68
2023/04/03 11:01:40;;;;;;;2.67;1.57;;;14.40;41.50;;;;;;6302737;22;20866;-68
2023/04/03 11:04:07;;;;;;;1.40;1.30;;;14.50;41.10;;;;;;6303347;22;20500;-67
2023/04/03 11:06:40;;;;;;;3.67;1.80;;;14.60;41.80;;;;;;6303133;22;20430;-68
2023/04/03 11:09:19;;;;;;;2.30;1.60;;;14.60;40.80;;;;;;6303386;22;20778;-69
2023/04/03 11:11:49;;;;;;;2.77;1.50;;;14.50;39.70;;;;;;6302895;22;20822;-69
2023/04/03 11:14:24;;;;;;;1.90;1.70;;;14.50;39.80;;;;;;6303023;22;20410;-68
2023/04/03 11:17:11;;;;;;;2.00;1.40;;;14.50;39.90;;;;;;6303226;22;21023;-68
2023/04/03 11:19:43;;;;;;;2.30;1.43;;;14.40;40.30;;;;;;6303430;22;20397;-68
2023/04/03 11:22:16;;;;;;;1.63;1.53;;;14.40;39.10;;;;;;6305002;22;20402;-70
2023/04/03 11:24:47;;;;;;;3.50;1.60;;;14.50;38.70;;;;;;6305064;22;20719;-67
2023/04/03 11:27:22;;;;;;;1.40;1.30;;;14.50;38.90;;;;;;6305107;22;20386;-68
2023/04/03 11:29:51;;;;;;;2.20;1.47;;;14.50;39.10;;;;;;6304675;22;20433;-68
2023/04/03 11:32:58;;;;;;;3.20;1.57;;;14.40;39.70;;;;;;6304024;22;20403;-68
2023/04/03 11:35:26;;;;;;;1.67;1.53;;;14.40;39.70;;;;;;6305543;22;20390;-68
2023/04/03 11:37:54;;;;;;;4.03;1.60;;;14.40;40.30;;;;;;6304673;22;20444;-68
2023/04/03 11:40:26;;;;;;;1.53;1.30;;;14.50;40.40;;;;;;6304372;22;20406;-68
2023/04/03 11:42:55;;;;;;;1.87;1.50;;;14.50;40.40;;;;;;6304888;22;20493;-68
2023/04/03 11:45:34;;;;;;;1.63;1.37;;;14.60;40.00;;;;;;6304650;22;20441;-68
2023/04/03 11:48:04;;;;;;;1.23;1.13;;;14.50;40.40;;;;;;6304947;22;20422;-68
2023/04/03 11:50:45;;;;;;;2.43;1.40;;;14.60;40.50;;;;;;6304403;22;20485;-68
2023/04/03 11:53:31;;;;;;;2.47;1.20;;;14.60;39.60;;;;;;6304342;22;20483;-68
2023/04/03 11:56:01;;;;;;;1.90;1.60;;;14.40;39.90;;;;;;6304384;22;20473;-68
2023/04/03 11:58:30;;;;;;;3.37;1.57;;;14.30;39.80;;;;;;6304564;22;20793;-69
2023/04/03 12:01:05;;;;;;;1.83;1.73;;;14.20;40.50;;;;;;6304032;22;20496;-68
2023/04/03 12:03:54;;;;;;;2.43;1.67;;;14.10;40.70;;;;;;6304555;22;20453;-67
2023/04/03 12:06:51;;;;;;;2.13;1.57;;;14.20;41.10;;;;;;6304120;22;20411;-69
2023/04/03 12:09:30;;;;;;;2.53;1.43;;;14.30;41.20;;;;;;6270365;22;20424;-68
2023/04/03 12:12:01;;;;;;;2.60;1.70;;;14.40;41.00;;;;;;6304263;22;20465;-69
2023/04/03 12:14:29;;;;;;;2.30;1.53;;;14.40;40.80;;;;;;6304272;22;20389;-68
2023/04/03 12:16:59;;;;;;;1.53;1.20;;;14.40;41.30;;;;;;6304293;22;20493;-69
2023/04/03 12:19:44;;;;;;;3.70;1.80;;;14.30;40.20;;;;;;6304037;22;20438;-68
2023/04/03 12:22:19;;;;;;;3.23;1.83;;;14.30;40.60;;;;;;6299733;22;20410;-68
2023/04/03 12:24:48;;;;;;;7.90;6.40;;;14.30;42.30;;;;;;6304394;22;20801;-68
2023/04/03 12:27:34;;;;;;;4.10;2.70;;;14.50;40.80;;;;;;6304405;22;20402;-72
2023/04/03 12:30:16;;;;;;;2.10;1.40;;;14.60;40.90;;;;;;6303797;22;20387;-68
2023/04/03 12:33:05;;;;;;;1.80;1.43;;;14.70;40.50;;;;;;6303568;22;20444;-70
2023/04/03 12:35:38;;;;;;;2.33;1.73;;;14.80;40.40;;;;;;6304451;22;20394;-68
2023/04/03 12:38:38;;;;;;;2.73;1.67;;;14.70;38.80;;;;;;6303952;22;21052;-69
2023/04/03 12:41:22;;;;;;;2.80;1.67;;;14.60;38.50;;;;;;6303227;22;20499;-69
2023/04/03 12:44:02;;;;;;;3.47;1.70;;;14.40;38.40;;;;;;6303667;22;20869;-70
2023/04/03 12:46:37;;;;;;;3.63;2.87;;;14.50;40.30;;;;;;6304113;22;20390;-69
2023/04/03 12:49:19;;;;;;;2.10;1.83;;;14.50;39.80;;;;;;6303748;22;20382;-68
2023/04/03 12:51:49;;;;;;;2.00;1.50;;;14.50;39.20;;;;;;6303572;22;20383;-69
2023/04/03 12:54:20;;;;;;;2.73;1.87;;;14.40;38.80;;;;;;6304121;22;20712;-69
2023/04/03 12:56:47;;;;;;;2.63;1.70;;;14.30;39.30;;;;;;6303969;22;20449;-68
2023/04/03 12:59:17;;;;;;;3.57;1.90;;;14.30;39.20;;;;;;6303805;22;20438;-67
2023/04/03 13:01:44;;;;;;;3.07;1.63;;;14.20;38.70;;;;;;6303653;22;20406;-68
2023/04/03 13:04:13;;;;;;;3.30;1.40;;;14.30;39.20;;;;;;6303783;22;20506;-68
2023/04/03 13:06:42;;;;;;;2.83;1.50;;;14.30;39.80;;;;;;6304173;22;20409;-67